• Join FlightAware (Why Join?)
  • Login
  • US Flag 
07:48AM EDT


 

Airport Tracker/Info


-or-


 

Live Flight TrackerFlight Track Log ✈ PDT4170 ✈ 21-Jun-2013 ✈ KTRI - KCLT

Flight Track Log - Related Links

Times and Time Zones

All times are in EDT time to prevent confusion due to time zone crossing. See the PDT4170 flight status page for this flight to view local times or setup timezone preferences in your user account.

Time Position Orientation Groundspeed Altitude Reporting Facility
EDT Latitude Longitude Course Direction KTS MPH feet Rate Location/Type
02:41PM 36.4067 -82.4550 158° South 143 165 4,300  Level Atlanta Center
02:42PM 36.3669 -82.4478 172° South 161 185 5,400 1,200 Climbing Atlanta Center
02:43PM 36.4333 -82.1531 90° East  Level FlightAware Approximate
02:43PM 36.3456 -82.4019 120° Southeast 182 209 6,700  Level Atlanta Center
02:44PM 36.4137 -82.1069 158° South  Level FlightAware Approximate
02:45PM 36.3670 -82.0835 158° South  Level FlightAware Approximate
02:45PM 36.3017 -82.3444 99° East  Level Estimated
02:45PM 36.3025 -82.3050 99° East 166 191 9,200  Level Atlanta Center
02:46PM 36.3266 -82.0466 158° South  Level FlightAware Approximate
02:46PM 36.2747 -82.2617 128° Southeast 166 191 10,300  Level Atlanta Center
02:47PM 36.2431 -82.2211 134° Southeast 158 182 11,000 300 Climbing Atlanta Center
02:48PM 36.2128 -82.1628 123° Southeast 185 213 10,900 -60 Descending Atlanta Center
02:49PM 36.1664 -82.1200 143° Southeast 204 235 10,900  Level Atlanta Center
02:50PM 36.1092 -82.0753 148° Southeast 232 267 10,900  Level Atlanta Center
02:51PM 36.0689 -82.0272 136° Southeast 232 267 10,900  Level Atlanta Center
02:52PM 36.0158 -81.9772 143° Southeast 237 273 10,900  Level Atlanta Center
02:53PM 35.9631 -81.9272 143° Southeast 237 273 10,900  Level Atlanta Center
02:54PM 35.9142 -81.8747 139° Southeast 242 278 10,900  Level Atlanta Center
02:55PM 35.8611 -81.8250 143° Southeast 237 273 10,900  Level Atlanta Center
02:56PM 35.8100 -81.7750 142° Southeast 237 273 10,900  Level Atlanta Center
02:57PM 35.7569 -81.7281 144° Southeast 237 273 10,900 -300 Level Atlanta Center
02:58PM 35.6975 -81.6758 144° Southeast 237 273 10,400 -600 Descending Atlanta Center
02:59PM 35.6403 -81.6239 144° Southeast 247 284 9,700 -840 Descending Atlanta Center
03:00PM 35.5997 -81.5842 141° Southeast 256 295 9,000 -420 Descending Atlanta Center
03:01PM 35.5589 -81.5217 129° Southeast 239 275 9,000  Level Atlanta Center
03:02PM 35.5114 -81.4492 129° Southeast 233 268 9,000  Level Atlanta Center
03:03PM 35.4747 -81.3917 128° Southeast 232 267 9,000  Level Atlanta Center
03:04PM 35.4336 -81.3242 127° Southeast 231 266 9,000  Level Atlanta Center
03:05PM 35.3883 -81.2594 131° Southeast 230 265 9,000  Level Atlanta Center
03:06PM 35.3453 -81.1947 129° Southeast 231 266 9,000  Level Atlanta Center
03:07PM 35.3128 -81.1422 127° Southeast 228 262 9,000  Level Atlanta Center
03:08PM 35.2758 -81.0775 125° Southeast 228 262 9,000  Level Atlanta Center
03:09PM 35.2306 -81.0233 136° Southeast 232 267 9,000 -660 Level Atlanta Center
03:10PM 35.1667 -81.0536 201° Southwest 253 291 7,700 -1,440 Descending Atlanta Center
03:11PM 35.0856 -81.0667 188° South 251 289 6,000 -840 Descending Atlanta Center
03:12PM 35.0253 -81.0711 183° South 222 255 6,000  Level Atlanta Center
03:13PM 34.9625 -81.0683 178° South 213 245 6,000  Level Atlanta Center
03:14PM 34.9019 -81.0631 176° South 225 259 6,000  Level Atlanta Center
03:15PM 34.8428 -81.0372 160° South 216 249 6,000 -480 Level Atlanta Center
03:16PM 34.8453 -80.9714 87° East 193 222 5,100 -540 Descending Atlanta Center
03:17PM 34.8886 -80.9494 23° Northeast 173 199 5,000 -60 Descending Atlanta Center
03:18PM 34.9450 -80.9475 North 181 208 5,000 -180 Level Atlanta Center
03:19PM 34.9950 -80.9506 357° North 189 217 4,700 -720 Descending Atlanta Center
03:20PM 35.0494 -80.9536 357° North 196 226 3,600 -1,080 Descending Atlanta Center